METAR AND TAF INFORMATION
METAR FOR EBBR
ADDS - METARS form results

(0649 UTC 17 July 2019)
Data provider http://aviationweather.gov/metar/data/
 
METAR text: EBBR 170620Z 00000KT 8000 NSC 17/15 Q1016 NOSIG
Conditions at: EBBR (BRUSSELS NATIONA, BE) observed 0620 UTC 17 July 2019
Temperature: 17.0°C (63°F)
Dewpoint: 15.0°C (59°F) [RH = 88%]
Pressure (altimeter): 30.00 inches Hg (1016.0 mb)
Winds: calm
Visibility: 5 miles ( 8 km)
Ceiling: at least 12,000 feet AGL
Clouds: sky clear below 12,000 feet AGL
Weather: no significant weather observed at this time

METAR text: EBBR 170550Z 00000KT 7000 NSC 14/13 Q1016 NOSIG
Conditions at: EBBR (BRUSSELS NATIONA, BE) observed 0550 UTC 17 July 2019
Temperature: 14.0°C (57°F)
Dewpoint: 13.0°C (55°F) [RH = 94%]
Pressure (altimeter): 30.00 inches Hg (1016.0 mb)
Winds: calm
Visibility: 4 miles ( 7 km)
Ceiling: at least 12,000 feet AGL
Clouds: sky clear below 12,000 feet AGL
Weather: no significant weather observed at this time

Forecast for: EBBR (BRUSSELS NATIONA, BE)
Text: TAF EBBR 170500Z 1706/1812 VRB03KT CAVOK
Forecast period: 0600 UTC 17 July 2019 to 1200 UTC 18 July 2019
Forecast type: FROM: standard forecast or significant change
Winds: variable direction winds at 3 MPH (3 knots; 1.5 m/s)
Visibility: 6 or more miles 10+ km)
Ceiling: unknown
Clouds: missing
Weather: NSW  (no significant weather)

 AIRPORT MAP

 RUNWAY INFORMATION
Runway 01 Runway length 9800 ft Runway width 164 ft
Runway elevation 183 ft Runway displaced threshold 151 ft Runway heading 14
Runway 19 Runway length 9800 ft Runway width 164 ft
Runway elevation 113 ft Runway displaced threshold 571 ft Runway heading 194
Runway 07L Runway length 11936 ft Runway width 148 ft
Runway elevation 129 ft Runway displaced threshold 846 ft Runway heading 65
Runway 25R Runway length 11936 ft Runway width 148 ft
Runway elevation 110 ft Runway displaced threshold 984 ft Runway heading 245
Runway 07R Runway length 10535 ft Runway width 148 ft
Runway elevation 175 ft Runway displaced threshold 400 ft Runway heading 70
Runway 25L Runway length 10535 ft Runway width 148 ft
Runway elevation 159 ft Runway displaced threshold 0 ft Runway heading 250

 AIRPORT FREQUENCIES
Type APP Name APP Frequency 118.25 MHZ
Type ATIS Name ATIS DEP Frequency 121.75 MHZ
Type ATIS Name ATIS ARR Frequency 132.475 MHZ
Type CLD Name CLNC DEL Frequency 121.95 MHZ
Type DEP Name DEP Frequency 126.625 MHZ
Type GND Name GND North Frequency 118.05 MHZ
Type GND Name GND South Frequency 121.875 MHZ
Type OPS Name MELSBROEK Frequency 140.575 MHZ
Type TWR Name TWR (RWY 0 Frequency 118.6 MHZ
Type TWR Name TWR (RWY 0 Frequency 120.775 MHZ
Type UNIC Name ABELAG UNI Frequency 130.55 MHZ

 AIRPORT NEAR NAVIGATION AIDS
Type VOR-DME Name Affligem Frequency 114900 KHZ
Type VOR-DME Name Brussels Frequency 114600 KHZ
Type VOR-DME Name Bruno Frequency 110600 KHZ
Type NDB Name Brussels Frequency 293 KHZ
Type NDB Name Brussels Frequency 314 KHZ